createdAt,value
2018-07-06T04:50:49.184Z,63.69
2018-07-06T04:52:06.571Z,63.36
2018-07-06T04:53:23.118Z,63.35
2018-07-06T04:54:39.791Z,63.31
2018-07-06T04:55:57.165Z,64.19
2018-07-06T04:57:13.563Z,64.20
2018-07-06T04:58:30.477Z,64.15
2018-07-06T04:59:47.088Z,64.19
2018-07-06T05:01:03.903Z,63.74
2018-07-06T05:02:20.595Z,63.94
2018-07-06T05:03:37.419Z,63.08
2018-07-06T05:06:03.472Z,62.34
2018-07-06T05:07:21.723Z,61.92
2018-07-06T05:08:39.171Z,61.70
2018-07-06T05:09:55.594Z,61.97
2018-07-06T05:11:11.944Z,61.47
2018-07-06T05:12:28.452Z,60.99
2018-07-06T05:13:44.827Z,61.67
2018-07-06T05:15:01.189Z,60.98
2018-07-06T05:16:17.917Z,60.46
2018-07-06T05:17:34.412Z,60.08
2018-07-06T05:18:50.933Z,60.14
2018-07-06T05:20:10.197Z,60.35
2018-07-06T05:21:26.632Z,59.81
2018-07-06T05:22:43.156Z,59.98
2018-07-06T05:23:59.654Z,59.85
2018-07-06T05:25:16.281Z,59.73
2018-07-06T05:26:32.594Z,58.41
2018-07-06T05:27:51.799Z,57.48
2018-07-06T05:29:08.203Z,56.50
2018-07-06T05:30:24.796Z,55.16
2018-07-06T05:31:41.141Z,54.05
2018-07-06T05:32:57.834Z,53.48
2018-07-06T05:34:15.793Z,52.23
2018-07-06T05:35:33.170Z,51.55
2018-07-06T05:36:49.603Z,50.46
2018-07-06T05:38:06.059Z,50.24
2018-07-06T05:39:23.366Z,50.17
2018-07-06T05:40:40.852Z,49.67
2018-07-06T05:41:57.632Z,49.44
2018-07-06T05:43:15.270Z,49.33
2018-07-06T05:44:31.598Z,49.67
2018-07-06T05:45:48.170Z,49.10
2018-07-06T05:47:05.460Z,49.08
2018-07-06T05:48:24.326Z,50.13
2018-07-06T05:49:42.074Z,50.10
2018-07-06T05:50:59.316Z,50.57
2018-07-06T05:52:15.764Z,50.86
2018-07-06T05:53:33.426Z,51.16
2018-07-06T05:54:59.408Z,51.50
2018-07-06T05:56:23.088Z,52.14
2018-07-06T05:57:40.999Z,52.30
2018-07-06T05:59:00.362Z,52.48
2018-07-06T06:00:17.024Z,53.11
2018-07-06T06:01:33.666Z,52.92
2018-07-06T06:02:50.586Z,53.62
2018-07-06T06:04:07.854Z,52.49
2018-07-06T06:05:25.872Z,52.53
2018-07-06T06:06:42.128Z,52.76
2018-07-06T06:07:46.278Z,52.29
2018-07-06T06:08:51.977Z,52.01
2018-07-06T06:09:58.135Z,51.60
2018-07-06T06:11:04.130Z,50.55
2018-07-06T06:12:12.749Z,50.19
2018-07-06T06:13:18.946Z,50.85
2018-07-06T06:14:25.577Z,49.23
2018-07-06T06:15:31.740Z,49.33
2018-07-06T06:16:37.804Z,49.14
2018-07-06T06:17:45.697Z,48.48
2018-07-06T06:18:53.231Z,48.76
2018-07-06T06:20:00.030Z,48.77
2018-07-06T06:21:06.203Z,47.75
2018-07-06T06:22:14.185Z,48.25
2018-07-06T06:23:20.674Z,48.19
2018-07-06T06:24:30.676Z,48.57
2018-07-06T06:25:36.897Z,48.49
2018-07-06T06:26:43.410Z,48.21
2018-07-06T06:27:49.730Z,47.86
2018-07-06T06:28:57.115Z,46.81
2018-07-06T06:30:04.698Z,46.35
2018-07-06T06:31:10.772Z,46.21
2018-07-06T06:32:20.368Z,46.67
2018-07-06T06:33:31.084Z,46.79
2018-07-06T06:34:38.856Z,47.16
2018-07-06T06:35:47.589Z,46.79
2018-07-06T06:36:56.072Z,47.50
2018-07-06T06:38:03.221Z,47.37
2018-07-06T06:39:10.443Z,47.22
2018-07-06T06:40:17.132Z,47.50
2018-07-06T06:41:25.174Z,46.58
2018-07-06T06:42:32.180Z,46.00
2018-07-06T06:43:38.494Z,46.82
2018-07-06T06:44:46.309Z,46.84
2018-07-06T06:45:54.621Z,46.90
2018-07-06T06:47:01.619Z,46.92
2018-07-06T06:48:07.902Z,47.38
2018-07-06T06:49:15.007Z,46.97
2018-07-06T06:50:22.763Z,46.84
2018-07-06T06:51:28.954Z,47.10
2018-07-06T06:52:35.195Z,47.17
2018-07-06T06:53:42.950Z,47.01
2018-07-06T06:54:49.271Z,46.59
2018-07-06T06:55:56.150Z,46.06
2018-07-06T06:57:03.080Z,45.96
2018-07-06T06:58:09.724Z,46.01
2018-07-06T06:59:18.093Z,45.36
2018-07-06T07:00:27.534Z,45.72
2018-07-06T07:01:32.856Z,45.68
2018-07-06T07:02:39.550Z,45.59
2018-07-06T07:03:45.830Z,45.30
2018-07-06T07:04:52.173Z,45.36
2018-07-06T07:06:00.521Z,45.44
2018-07-06T07:07:07.871Z,45.62
2018-07-06T07:08:16.193Z,45.71
2018-07-06T07:09:24.296Z,44.51
2018-07-06T07:10:31.452Z,43.59
2018-07-06T07:11:37.849Z,43.14
2018-07-06T07:12:44.046Z,42.94
2018-07-06T07:13:51.115Z,42.70
2018-07-06T07:14:57.272Z,42.49
2018-07-06T07:16:04.449Z,42.20
2018-07-06T07:17:11.256Z,41.37
2018-07-06T07:18:17.980Z,41.24
2018-07-06T07:19:24.568Z,40.54
2018-07-06T07:20:30.870Z,39.64
2018-07-06T07:21:37.231Z,38.91
2018-07-06T07:22:44.470Z,38.86
2018-07-06T07:23:51.031Z,39.13
2018-07-06T07:24:57.496Z,39.70
2018-07-06T07:26:03.890Z,40.11
2018-07-06T07:27:09.765Z,39.44
2018-07-06T07:28:16.314Z,39.97
2018-07-06T07:29:22.467Z,39.62
2018-07-06T07:30:29.717Z,39.83
2018-07-06T07:31:36.464Z,39.39
2018-07-06T07:32:44.564Z,39.16
2018-07-06T07:33:50.908Z,39.16
2018-07-06T07:34:56.961Z,38.08
2018-07-06T07:36:03.091Z,37.91
2018-07-06T07:37:09.873Z,36.64
2018-07-06T07:38:18.377Z,36.61
2018-07-06T07:39:25.265Z,35.72
2018-07-06T07:40:32.383Z,35.67
2018-07-06T07:41:38.455Z,34.69
2018-07-06T07:42:44.653Z,34.17
2018-07-06T07:43:51.773Z,33.50
2018-07-06T07:44:58.601Z,32.85
2018-07-06T07:46:05.309Z,32.93
2018-07-06T07:47:11.407Z,33.33
2018-07-06T07:48:17.459Z,32.96
2018-07-06T07:49:23.385Z,32.04
2018-07-06T07:50:30.488Z,31.73
2018-07-06T07:52:00.709Z,32.01
2018-07-06T07:53:17.533Z,31.52
2018-07-06T07:54:29.432Z,30.95
2018-07-06T07:55:35.925Z,31.00
2018-07-06T07:56:42.417Z,30.51
2018-07-06T07:57:48.717Z,30.49
2018-07-06T07:58:54.935Z,30.29
2018-07-06T08:00:01.157Z,30.28
2018-07-06T08:01:07.746Z,30.60
2018-07-06T08:02:14.160Z,29.80
2018-07-06T08:03:21.220Z,29.50
2018-07-06T08:04:27.473Z,29.82
2018-07-06T08:05:36.121Z,29.11
2018-07-06T08:06:42.288Z,29.20
2018-07-06T08:07:48.577Z,29.36
2018-07-06T08:08:58.341Z,29.15
2018-07-06T08:10:07.468Z,29.24
2018-07-06T08:11:16.013Z,28.28
2018-07-06T08:12:24.743Z,28.61
2018-07-06T08:13:31.749Z,28.35
2018-07-06T08:14:38.494Z,27.92
2018-07-06T08:15:44.987Z,27.89
2018-07-06T08:16:51.366Z,27.68
2018-07-06T08:17:57.675Z,28.54
2018-07-06T08:19:05.283Z,28.88
2018-07-06T08:20:14.277Z,28.77
2018-07-06T08:21:20.317Z,28.53
2018-07-06T08:22:26.288Z,28.56
2018-07-06T08:23:33.326Z,27.58
2018-07-06T08:24:40.118Z,28.01
2018-07-06T08:25:47.057Z,27.96
2018-07-06T08:26:53.198Z,27.76
2018-07-06T08:27:59.441Z,27.43
2018-07-06T08:29:05.642Z,27.92
2018-07-06T08:30:11.871Z,27.27
2018-07-06T08:31:20.355Z,27.45
2018-07-06T08:32:27.837Z,27.29
2018-07-06T08:33:38.148Z,27.15
2018-07-06T08:34:54.835Z,27.47
2018-07-06T08:36:29.026Z,26.91
2018-07-06T08:37:46.791Z,27.19
2018-07-06T08:38:54.455Z,26.96
2018-07-06T08:40:00.833Z,27.51
2018-07-06T08:41:07.393Z,27.36
2018-07-06T08:42:13.363Z,27.12
2018-07-06T08:43:19.505Z,27.20
2018-07-06T08:44:25.648Z,26.88
2018-07-06T08:45:32.575Z,27.13
2018-07-06T08:46:38.662Z,27.02
2018-07-06T08:47:45.093Z,26.85
2018-07-06T08:48:51.320Z,27.07
2018-07-06T08:49:59.156Z,27.08
2018-07-06T08:51:05.748Z,26.88
2018-07-06T08:52:11.866Z,26.67
2018-07-06T08:53:17.988Z,26.82
2018-07-06T08:54:24.874Z,26.58
2018-07-06T08:55:31.356Z,26.61
2018-07-06T08:56:37.449Z,26.23
2018-07-06T08:57:44.666Z,26.41
2018-07-06T08:58:52.093Z,26.41
2018-07-06T08:59:58.142Z,26.27
2018-07-06T09:01:05.275Z,26.16
2018-07-06T09:02:11.533Z,25.98
2018-07-06T09:03:18.461Z,25.66
2018-07-06T09:04:25.520Z,25.92
2018-07-06T09:05:31.541Z,25.75
2018-07-06T09:06:38.216Z,25.75
2018-07-06T09:07:44.541Z,25.48
2018-07-06T09:08:50.646Z,25.32
2018-07-06T09:09:59.365Z,25.68
2018-07-06T09:11:08.329Z,25.61
2018-07-06T09:12:15.448Z,26.47
2018-07-06T09:13:21.603Z,26.30
2018-07-06T09:14:27.675Z,26.03
2018-07-06T09:15:34.401Z,26.51
2018-07-06T09:16:42.215Z,27.06
2018-07-06T09:17:48.220Z,27.03
2018-07-06T09:18:54.386Z,26.99
2018-07-06T09:20:01.383Z,27.14
2018-07-06T09:21:07.238Z,26.85
2018-07-06T09:22:14.348Z,27.06
2018-07-06T09:23:20.582Z,26.71
2018-07-06T09:24:27.110Z,27.90
2018-07-06T09:25:33.634Z,28.17
2018-07-06T09:26:39.693Z,28.51
2018-07-06T09:27:46.544Z,28.51
2018-07-06T09:28:53.162Z,28.63
2018-07-06T09:29:59.412Z,28.70
2018-07-06T09:31:08.454Z,28.83
2018-07-06T09:32:14.674Z,27.96
2018-07-06T09:33:20.802Z,28.81
2018-07-06T09:34:26.848Z,28.65
2018-07-06T09:35:34.196Z,28.57
2018-07-06T09:36:41.580Z,29.27
2018-07-06T09:37:51.431Z,30.29
2018-07-06T09:38:57.347Z,30.98
2018-07-06T09:40:04.292Z,31.05
2018-07-06T09:41:12.979Z,31.73
2018-07-06T09:42:19.410Z,32.31
2018-07-06T09:43:25.605Z,32.28
2018-07-06T09:44:31.705Z,32.85
2018-07-06T09:45:37.804Z,33.46
2018-07-06T09:46:45.765Z,34.12
2018-07-06T09:47:52.028Z,35.83
2018-07-06T09:48:57.988Z,36.51
2018-07-06T09:50:03.989Z,37.69
2018-07-06T09:51:10.106Z,38.92
2018-07-06T09:52:16.130Z,39.27
2018-07-06T09:53:24.090Z,39.93
2018-07-06T09:54:30.385Z,40.68
2018-07-06T09:55:37.367Z,40.78
2018-07-06T10:54:08.190Z,45.43
2018-07-06T10:55:15.384Z,45.48
2018-07-06T10:56:25.941Z,45.09
2018-07-06T10:57:34.242Z,45.09
2018-07-06T10:58:41.150Z,44.92
2018-07-06T10:59:48.156Z,44.91
2018-07-06T11:00:54.990Z,44.83
2018-07-06T11:02:04.375Z,45.09
2018-07-06T11:03:11.249Z,44.56
2018-07-06T11:04:18.188Z,45.25
2018-07-06T11:05:26.830Z,44.73
2018-07-06T11:06:33.470Z,44.63
2018-07-06T11:07:40.610Z,44.03
2018-07-06T11:08:47.511Z,44.67
2018-07-06T11:09:54.586Z,44.62
2018-07-06T11:11:01.143Z,44.62
2018-07-06T11:12:07.782Z,44.78
2018-07-06T11:13:16.631Z,44.64
2018-07-06T11:14:26.770Z,44.01
2018-07-06T11:15:37.716Z,44.18
2018-07-06T11:16:44.334Z,44.28
2018-07-06T11:17:51.248Z,44.14
2018-07-06T11:18:57.842Z,43.78
2018-07-06T11:20:04.982Z,44.22
2018-07-06T11:21:11.658Z,44.34
2018-07-06T11:22:18.649Z,44.24
2018-07-06T11:23:25.076Z,44.34
2018-07-06T11:24:31.714Z,44.54
2018-07-06T11:25:38.367Z,44.10
2018-07-06T11:26:45.021Z,44.17
2018-07-06T11:27:55.114Z,44.58
2018-07-06T11:29:03.578Z,44.33
2018-07-06T11:30:10.295Z,44.03
2018-07-06T11:31:18.042Z,44.07
2018-07-06T11:32:24.791Z,44.97
2018-07-06T11:33:32.110Z,44.52
2018-07-06T11:34:38.721Z,44.49
2018-07-06T11:35:47.980Z,44.57
2018-07-06T11:36:54.644Z,44.72
2018-07-06T11:38:02.277Z,44.25
2018-07-06T11:39:12.706Z,44.21
2018-07-06T11:40:19.801Z,44.35
2018-07-06T11:41:27.560Z,44.45
2018-07-06T11:42:35.505Z,44.17
2018-07-06T11:43:43.888Z,44.04
2018-07-06T11:44:54.080Z,44.45
2018-07-06T11:46:01.338Z,44.12
2018-07-06T11:47:08.510Z,43.50
2018-07-06T11:48:15.006Z,43.45
2018-07-06T11:49:21.630Z,43.28
2018-07-06T11:50:28.715Z,43.45
2018-07-06T11:51:38.003Z,43.48
2018-07-06T11:52:45.553Z,43.30
2018-07-06T11:53:52.201Z,43.70
2018-07-06T11:54:59.406Z,43.43
2018-07-06T11:56:08.026Z,43.49
2018-07-06T11:57:15.605Z,43.54
2018-07-06T11:58:22.163Z,43.50
2018-07-06T11:59:30.400Z,43.19
2018-07-06T12:00:40.711Z,43.67
2018-07-06T12:01:48.369Z,43.27
2018-07-06T12:02:55.139Z,43.23
2018-07-06T12:04:01.738Z,43.13
2018-07-06T12:05:08.297Z,43.36
2018-07-06T12:06:14.776Z,43.47
2018-07-06T12:07:22.145Z,43.68
2018-07-06T12:08:29.517Z,43.04
2018-07-06T12:09:36.274Z,42.79
2018-07-06T12:10:43.709Z,43.20
2018-07-06T12:11:50.358Z,43.05
2018-07-06T12:12:58.967Z,43.03
2018-07-06T12:14:06.819Z,42.46
2018-07-06T12:15:14.660Z,42.38
2018-07-06T12:16:22.032Z,42.42
2018-07-06T12:17:28.810Z,42.40
2018-07-06T12:18:36.861Z,42.42
2018-07-06T12:19:43.713Z,42.47
2018-07-06T12:20:51.488Z,42.60
2018-07-06T12:21:59.239Z,42.31
2018-07-06T12:23:07.295Z,41.78
2018-07-06T12:24:14.470Z,42.19
2018-07-06T12:25:20.914Z,41.95
2018-07-06T12:26:27.469Z,41.76
2018-07-06T12:27:34.046Z,42.29
2018-07-06T12:28:41.318Z,41.85
2018-07-06T12:29:48.126Z,42.03
2018-07-06T12:30:54.603Z,42.27
2018-07-06T12:32:02.938Z,41.78
2018-07-06T12:33:09.474Z,41.85
2018-07-06T12:34:17.576Z,41.29
2018-07-06T12:35:25.947Z,41.31
2018-07-06T12:36:32.383Z,41.90
2018-07-06T12:37:39.338Z,41.34
2018-07-06T12:39:03.386Z,41.24
2018-07-06T12:40:10.453Z,40.76
2018-07-06T12:41:18.057Z,40.78
2018-07-06T12:42:26.770Z,40.81
2018-07-06T12:43:36.242Z,41.24
2018-07-06T12:44:43.826Z,40.93
2018-07-06T12:45:52.820Z,40.87
2018-07-06T12:46:59.297Z,40.43
2018-07-06T12:48:08.245Z,40.67
2018-07-06T12:49:15.798Z,40.82
2018-07-06T12:50:23.477Z,40.68
2018-07-06T12:51:29.998Z,40.78
2018-07-06T12:52:39.945Z,40.38
2018-07-06T12:53:46.457Z,40.54
2018-07-06T12:54:54.401Z,40.57
2018-07-06T12:56:01.382Z,40.27
2018-07-06T12:57:08.180Z,41.02
2018-07-06T12:58:17.452Z,40.28
2018-07-06T12:59:26.485Z,40.46
2018-07-06T13:00:33.325Z,41.16
2018-07-06T13:01:40.288Z,40.04
2018-07-06T13:02:50.164Z,40.99
2018-07-06T13:03:59.955Z,40.84
2018-07-06T13:05:06.845Z,40.79
2018-07-06T13:06:16.438Z,41.20
2018-07-06T13:07:24.186Z,41.11
2018-07-06T13:08:31.662Z,41.34
2018-07-06T13:09:38.272Z,41.17
2018-07-06T13:10:44.760Z,41.08
2018-07-06T13:11:52.652Z,41.16
2018-07-06T13:12:59.937Z,40.94
2018-07-06T13:14:08.746Z,41.35
2018-07-06T13:15:16.294Z,41.09
2018-07-06T13:16:23.093Z,41.01
2018-07-06T13:17:30.681Z,41.64
2018-07-06T14:07:48.480Z,49.72
2018-07-06T14:08:55.144Z,49.73
2018-07-06T14:10:01.825Z,48.71
2018-07-06T14:11:09.013Z,48.14
2018-07-06T14:12:15.885Z,47.32
2018-07-06T14:13:22.571Z,47.15
2018-07-06T14:14:29.450Z,46.99
2018-07-06T14:15:37.351Z,46.79
2018-07-06T14:16:44.780Z,47.39
2018-07-06T14:17:51.387Z,47.87
2018-07-06T14:18:57.955Z,47.71
2018-07-06T14:20:05.361Z,47.90
2018-07-06T14:21:11.800Z,48.35
2018-07-06T14:22:18.197Z,48.17
2018-07-06T14:23:24.727Z,48.04
2018-07-06T14:24:31.367Z,47.99
2018-07-06T14:25:38.552Z,47.71
2018-07-06T14:26:46.853Z,48.20
2018-07-06T14:27:54.588Z,47.72
2018-07-06T14:29:02.182Z,47.06
2018-07-06T14:30:09.380Z,47.02
2018-07-06T14:31:15.792Z,46.52
2018-07-06T14:32:22.367Z,46.52
2018-07-06T14:33:30.735Z,46.18
2018-07-06T14:34:37.363Z,45.63
2018-07-06T14:35:46.082Z,45.75
2018-07-06T14:36:54.448Z,45.49
2018-07-06T14:38:01.810Z,45.62
2018-07-06T14:39:09.371Z,45.69
2018-07-06T14:40:15.905Z,45.56
2018-07-06T14:41:22.689Z,45.33
2018-07-06T14:42:30.125Z,45.33
2018-07-06T14:43:37.447Z,45.73
2018-07-06T14:44:44.079Z,45.90
2018-07-06T14:45:50.699Z,46.00
2018-07-06T14:46:57.197Z,46.11
2018-07-06T14:48:05.527Z,45.80
2018-07-06T14:49:12.290Z,45.52
2018-07-06T14:50:21.661Z,45.59
2018-07-06T14:51:28.260Z,44.75
2018-07-06T14:52:35.769Z,44.94
2018-07-06T14:53:42.416Z,44.55
2018-07-06T14:54:48.989Z,45.43
2018-07-06T14:55:55.572Z,45.32
2018-07-06T14:57:02.154Z,45.34
2018-07-06T14:58:11.254Z,45.65
2018-07-06T14:59:18.838Z,45.22
2018-07-06T15:00:27.155Z,44.97
2018-07-06T15:01:34.740Z,44.64
2018-07-06T15:02:45.650Z,44.72
2018-07-06T15:03:52.204Z,44.57
2018-07-06T15:04:58.612Z,44.07
2018-07-06T15:06:08.916Z,43.76
2018-07-06T15:07:15.504Z,44.06
2018-07-06T15:08:22.075Z,44.90
2018-07-06T15:09:29.328Z,44.72
2018-07-06T15:10:36.875Z,44.67
2018-07-06T15:11:44.441Z,45.18
2018-07-06T15:12:50.866Z,45.92
2018-07-06T15:13:57.589Z,46.25
2018-07-06T15:15:04.088Z,46.63
2018-07-06T15:16:10.877Z,47.30
2018-07-06T15:17:19.000Z,47.72
2018-07-06T15:18:25.510Z,47.70
2018-07-06T15:19:32.610Z,48.01
2018-07-06T15:20:40.912Z,48.39
2018-07-06T15:21:47.675Z,48.04
2018-07-06T15:22:54.550Z,47.85
2018-07-06T15:24:02.451Z,47.75
2018-07-06T15:25:09.729Z,47.85
2018-07-06T15:26:16.328Z,47.12
2018-07-06T15:27:24.853Z,47.49
2018-07-06T15:28:31.331Z,47.16
2018-07-06T15:29:38.050Z,46.75
2018-07-06T15:30:44.670Z,46.45
2018-07-06T15:31:51.601Z,47.03
2018-07-06T15:32:59.040Z,47.02
2018-07-06T15:34:05.724Z,47.12
2018-07-06T15:35:13.826Z,46.99
2018-07-06T15:36:21.681Z,46.72
2018-07-06T15:37:31.922Z,46.53
2018-07-06T15:38:38.867Z,46.13
2018-07-06T15:39:45.739Z,46.37
2018-07-06T15:40:52.272Z,45.98
2018-07-06T15:42:00.106Z,46.10
2018-07-06T15:43:07.991Z,45.64
2018-07-06T15:44:16.043Z,45.56
2018-07-06T15:45:23.532Z,45.66
2018-07-06T15:46:30.800Z,45.92
2018-07-06T15:47:37.524Z,46.05
2018-07-06T15:48:44.500Z,46.16
2018-07-06T15:49:51.460Z,45.66
2018-07-06T15:50:59.409Z,45.48
2018-07-06T15:52:09.270Z,44.87
2018-07-06T15:53:19.017Z,44.83
2018-07-06T15:54:25.790Z,44.97
2018-07-06T15:55:33.438Z,44.73
2018-07-06T15:56:41.560Z,44.92
2018-07-06T15:57:53.086Z,44.36
2018-07-06T15:58:59.670Z,44.27
2018-07-06T16:00:07.412Z,44.22
2018-07-06T16:01:13.696Z,44.14
2018-07-06T16:02:21.259Z,44.05
2018-07-06T16:03:27.740Z,43.89
2018-07-06T16:04:36.882Z,43.89
2018-07-06T16:05:43.385Z,43.47
2018-07-06T16:06:51.431Z,43.39
2018-07-06T16:07:58.880Z,43.17
2018-07-06T16:09:05.916Z,43.04
2018-07-06T16:10:12.818Z,43.10
2018-07-06T16:11:19.194Z,43.21
2018-07-06T16:12:25.819Z,43.06
2018-07-06T16:13:32.328Z,43.10
2018-07-06T16:14:39.310Z,42.87
2018-07-06T16:15:45.742Z,42.84
2018-07-06T16:19:10.062Z,42.80
2018-07-06T16:20:16.455Z,43.15
2018-07-06T16:21:23.744Z,43.02
2018-07-06T16:22:31.934Z,42.61
2018-07-06T16:23:38.718Z,42.84
2018-07-06T16:24:46.620Z,42.78
2018-07-06T16:25:57.183Z,42.66
2018-07-06T16:27:04.302Z,42.43
2018-07-06T16:28:11.620Z,42.91
2018-07-06T16:29:18.869Z,42.87
2018-07-06T16:30:25.674Z,42.83
2018-07-06T16:31:32.672Z,43.23
2018-07-06T16:32:41.366Z,42.95
2018-07-06T16:33:49.449Z,42.82
2018-07-06T16:34:57.474Z,42.79
2018-07-06T16:36:05.309Z,42.83
2018-07-06T16:37:12.694Z,43.02
2018-07-06T16:38:20.058Z,42.71
2018-07-06T16:39:27.619Z,43.01
2018-07-06T16:40:34.860Z,43.08
2018-07-06T16:41:46.992Z,43.11
2018-07-06T16:42:53.448Z,43.39
2018-07-06T16:43:59.844Z,43.17
2018-07-06T16:45:06.952Z,43.19
2018-07-06T16:46:14.393Z,43.10
2018-07-06T16:47:21.838Z,43.23
2018-07-06T16:48:30.776Z,43.03
2018-07-06T16:49:37.218Z,42.82
2018-07-06T16:50:44.142Z,43.08
2018-07-06T16:51:50.496Z,42.88
2018-07-06T16:52:57.234Z,42.97
2018-07-06T16:54:03.819Z,43.10
2018-07-06T16:55:10.241Z,43.14
2018-07-06T16:56:16.653Z,42.86
2018-07-06T16:57:23.189Z,42.97
2018-07-06T16:58:30.105Z,43.30
2018-07-06T16:59:37.622Z,42.71
2018-07-06T17:00:44.482Z,43.07
2018-07-06T17:01:52.465Z,43.00
2018-07-06T17:02:59.521Z,43.18
2018-07-06T17:04:06.223Z,42.70
2018-07-06T17:05:13.555Z,43.42
2018-07-06T17:06:20.580Z,43.52
2018-07-06T17:07:27.660Z,43.15
2018-07-06T17:08:33.973Z,43.61
2018-07-06T17:09:42.720Z,43.71
2018-07-06T17:10:51.780Z,43.71
2018-07-06T17:11:58.929Z,43.63
2018-07-06T17:13:06.368Z,43.51
2018-07-06T17:14:13.216Z,43.47
2018-07-06T17:15:19.748Z,43.21
2018-07-06T17:16:28.933Z,43.38
2018-07-06T17:17:35.498Z,43.20
2018-07-06T17:18:44.027Z,43.39
2018-07-06T17:19:50.979Z,43.42
2018-07-06T17:20:59.458Z,43.76
2018-07-06T17:22:05.987Z,43.79
2018-07-06T17:23:14.600Z,43.61
2018-07-06T17:24:21.026Z,43.76
2018-07-06T17:25:27.644Z,44.04
2018-07-06T17:26:34.218Z,44.06
2018-07-06T17:27:41.868Z,43.56
2018-07-06T17:28:49.280Z,43.60
2018-07-06T17:29:57.006Z,43.82
2018-07-06T17:31:04.784Z,43.75
2018-07-06T17:32:12.091Z,43.87
2018-07-06T17:33:19.946Z,44.15
2018-07-06T17:34:27.101Z,44.12
2018-07-06T17:35:33.888Z,44.07
2018-07-06T17:36:41.448Z,44.00
2018-07-06T17:37:49.994Z,44.46
2018-07-06T17:38:56.683Z,44.67
2018-07-06T17:40:05.435Z,44.22
2018-07-06T17:41:13.912Z,43.76
2018-07-06T17:42:21.746Z,44.32
2018-07-06T17:43:28.483Z,44.29
2018-07-06T17:44:35.290Z,44.04
2018-07-06T17:45:42.104Z,44.18
2018-07-06T17:46:49.595Z,44.49
2018-07-06T17:47:57.627Z,44.18
2018-07-06T17:49:04.332Z,43.94
2018-07-06T17:50:11.549Z,44.18
2018-07-06T17:51:18.320Z,43.83
2018-07-06T17:52:24.960Z,44.14
2018-07-06T17:53:32.691Z,44.08
2018-07-06T17:54:39.865Z,44.25
2018-07-06T17:55:47.815Z,44.16
2018-07-06T17:56:55.016Z,44.14
2018-07-06T17:58:02.355Z,44.17
2018-07-06T17:59:10.206Z,44.13
2018-07-06T18:00:17.326Z,44.17
2018-07-06T18:01:24.590Z,44.12
2018-07-06T18:02:32.437Z,44.05
2018-07-06T18:03:39.546Z,44.12
2018-07-06T18:04:47.250Z,44.06
2018-07-06T18:05:55.108Z,43.85
2018-07-06T18:07:03.702Z,44.19
2018-07-06T18:08:11.321Z,44.34
2018-07-06T18:09:19.169Z,44.37
2018-07-06T18:10:26.146Z,44.25
2018-07-06T18:11:35.244Z,44.54
2018-07-06T18:12:42.227Z,44.57
2018-07-06T18:13:49.026Z,44.69
2018-07-06T18:14:57.695Z,44.98
2018-07-06T18:16:04.364Z,44.68
2018-07-06T18:17:14.545Z,45.15
2018-07-06T18:18:21.456Z,44.72
2018-07-06T18:19:28.650Z,45.51
2018-07-06T18:20:35.552Z,44.97
2018-07-06T18:21:44.201Z,45.06
2018-07-06T18:22:52.222Z,45.16
2018-07-06T18:23:59.390Z,45.17
2018-07-06T18:25:08.766Z,45.39
2018-07-06T18:26:16.037Z,44.98
2018-07-06T18:27:22.580Z,45.13
2018-07-06T18:28:29.857Z,45.35
2018-07-06T18:29:38.741Z,45.23
2018-07-06T18:30:45.452Z,45.20
2018-07-06T18:31:52.864Z,45.24
2018-07-06T18:33:00.479Z,45.45
2018-07-06T18:34:07.561Z,45.60
2018-07-06T18:35:15.091Z,45.62
2018-07-06T18:36:23.479Z,45.72
2018-07-06T18:37:31.515Z,45.40
2018-07-06T18:38:38.463Z,45.96
2018-07-06T18:39:45.017Z,46.01
2018-07-06T18:40:51.869Z,46.06
2018-07-06T18:41:59.895Z,46.52
2018-07-06T18:43:08.090Z,46.57
2018-07-06T18:44:14.899Z,46.53
2018-07-06T18:45:22.010Z,46.92
2018-07-06T18:46:30.788Z,47.54
2018-07-06T18:47:40.571Z,46.91
2018-07-06T18:48:47.525Z,46.80
2018-07-06T18:49:57.056Z,47.15
2018-07-06T18:51:03.931Z,47.22
2018-07-06T18:52:10.833Z,47.10
2018-07-06T18:53:18.827Z,47.18
2018-07-06T18:54:25.749Z,47.32
2018-07-06T18:55:35.932Z,47.93
2018-07-06T18:56:43.503Z,47.67
2018-07-06T18:57:52.405Z,47.48
2018-07-06T18:59:00.062Z,47.50
2018-07-06T19:00:09.881Z,47.47
2018-07-06T19:01:16.801Z,47.98
2018-07-06T19:02:24.928Z,48.04
2018-07-06T19:03:59.154Z,48.71
2018-07-06T19:05:06.913Z,48.34
2018-07-06T19:06:18.256Z,48.49
2018-07-06T19:07:24.745Z,48.84
2018-07-06T19:08:32.654Z,48.08
2018-07-06T19:09:39.982Z,48.35
2018-07-06T19:10:47.318Z,48.91
2018-07-06T19:11:56.033Z,48.63
2018-07-06T19:13:03.749Z,48.53
2018-07-06T19:14:11.020Z,48.48
2018-07-06T19:15:23.863Z,48.56
2018-07-06T19:16:31.347Z,48.53
2018-07-06T19:17:40.230Z,48.46
2018-07-06T19:18:47.458Z,48.03
2018-07-06T19:19:55.678Z,48.15
2018-07-06T19:21:03.646Z,48.82
2018-07-06T19:22:12.876Z,48.10
2018-07-06T19:23:22.048Z,48.28
2018-07-06T19:24:28.708Z,48.98
2018-07-06T19:25:36.150Z,49.12
2018-07-06T19:26:43.292Z,48.90
2018-07-06T19:27:52.261Z,48.78
2018-07-06T19:29:01.669Z,49.18
2018-07-06T19:30:08.444Z,48.54
2018-07-06T19:31:16.197Z,49.05
2018-07-06T19:32:25.786Z,49.72
2018-07-06T19:33:33.100Z,49.43
2018-07-06T19:34:40.283Z,49.57
2018-07-06T19:35:47.875Z,49.11
2018-07-06T19:36:55.028Z,49.33
2018-07-06T19:38:03.287Z,50.09
2018-07-06T19:39:10.440Z,50.25
2018-07-06T19:40:18.179Z,49.28
2018-07-06T19:41:26.774Z,49.69
2018-07-06T19:42:33.569Z,50.39
2018-07-06T19:43:42.498Z,49.47
2018-07-06T19:44:52.583Z,50.19
2018-07-06T19:46:00.767Z,49.86
2018-07-06T19:47:08.452Z,49.95
2018-07-06T19:48:14.955Z,50.07
2018-07-06T19:49:22.221Z,50.41
2018-07-06T19:50:31.357Z,50.55
2018-07-06T19:51:37.923Z,49.68
2018-07-06T19:52:44.616Z,50.23
2018-07-06T19:53:51.551Z,50.13
2018-07-06T19:54:59.791Z,50.68
2018-07-06T19:56:07.335Z,50.47
2018-07-06T19:57:15.104Z,50.74
2018-07-06T19:58:22.543Z,50.03
2018-07-06T19:59:29.828Z,50.44
2018-07-06T20:00:36.422Z,50.02
2018-07-06T20:01:43.867Z,50.36
2018-07-06T20:02:51.391Z,50.28
2018-07-06T20:03:58.793Z,50.01
2018-07-06T20:05:05.446Z,50.34
2018-07-06T20:06:14.344Z,50.92
2018-07-06T20:08:50.976Z,50.84
2018-07-06T20:09:57.730Z,50.62
2018-07-06T20:11:04.424Z,50.95
2018-07-06T20:12:11.133Z,50.22
2018-07-06T20:13:18.300Z,50.43
2018-07-06T20:14:24.482Z,50.23
2018-07-06T20:15:30.812Z,50.15
2018-07-06T20:16:37.407Z,50.87
2018-07-06T20:17:47.012Z,50.53
2018-07-06T20:18:53.708Z,49.97
2018-07-06T20:20:00.544Z,50.68
2018-07-06T20:21:07.260Z,50.10
2018-07-06T20:22:15.547Z,50.30
2018-07-06T20:23:25.124Z,50.15
2018-07-06T20:24:31.620Z,50.29
2018-07-06T20:25:37.871Z,50.45
2018-07-06T20:26:43.960Z,50.62
2018-07-06T20:27:50.539Z,50.67
2018-07-06T20:28:56.878Z,50.49
2018-07-06T20:30:03.107Z,50.65
2018-07-06T20:31:09.520Z,50.71
2018-07-06T20:32:15.553Z,50.69
2018-07-06T20:33:22.469Z,50.03
2018-07-06T20:34:29.192Z,50.41
2018-07-06T20:35:36.472Z,50.46
2018-07-06T20:36:43.133Z,50.88
2018-07-06T20:37:49.200Z,51.24
2018-07-06T20:38:55.207Z,51.35
2018-07-06T20:40:06.573Z,50.58
2018-07-06T20:41:16.813Z,51.19
2018-07-06T20:42:23.400Z,51.53
2018-07-06T20:43:29.895Z,51.59
2018-07-06T20:44:36.162Z,50.87
2018-07-06T20:45:43.486Z,51.11
2018-07-06T20:46:51.636Z,51.84
2018-07-06T20:47:59.378Z,51.51
2018-07-06T20:49:05.666Z,51.53
2018-07-06T20:50:11.913Z,51.63
2018-07-06T20:51:18.972Z,51.50
2018-07-06T20:52:28.005Z,51.76
2018-07-06T20:53:34.479Z,51.60
2018-07-06T20:54:41.242Z,52.36
2018-07-06T20:55:49.360Z,51.89
2018-07-06T20:56:56.231Z,51.34
2018-07-06T20:58:03.862Z,51.31
2018-07-06T20:59:09.946Z,52.42
2018-07-06T21:00:16.640Z,51.52
2018-07-06T21:01:23.683Z,51.96
2018-07-06T21:02:29.820Z,52.17
2018-07-06T21:03:36.426Z,51.42
2018-07-06T21:04:42.549Z,52.02
2018-07-06T21:05:50.257Z,52.38
2018-07-06T21:08:48.949Z,51.76
2018-07-06T21:09:55.231Z,52.08
2018-07-06T21:11:02.368Z,51.52
2018-07-06T21:12:10.624Z,52.35
2018-07-06T21:13:17.942Z,52.30
2018-07-06T21:14:26.549Z,51.95
2018-07-06T21:15:33.512Z,51.53
2018-07-06T21:16:40.833Z,51.29
2018-07-06T21:17:48.180Z,51.62
2018-07-06T21:18:54.561Z,51.04
2018-07-06T21:20:01.055Z,51.60
2018-07-06T21:21:08.299Z,51.54
2018-07-06T21:22:16.466Z,51.19